sensor_id;sensor_type;location;lat;lon;timestamp;temperature;humidity
4811;DHT22;2419;51.276;6.472;2023-06-01T00:02:19;15.60;99.90
4811;DHT22;2419;51.276;6.472;2023-06-01T00:04:47;15.50;99.90
4811;DHT22;2419;51.276;6.472;2023-06-01T00:07:16;15.50;99.90
4811;DHT22;2419;51.276;6.472;2023-06-01T00:09:46;15.40;99.90
4811;DHT22;2419;51.276;6.472;2023-06-01T00:12:17;15.30;99.90
4811;DHT22;2419;51.276;6.472;2023-06-01T00:14:45;15.30;99.90
4811;DHT22;2419;51.276;6.472;2023-06-01T00:17:13;15.30;99.90
4811;DHT22;2419;51.276;6.472;2023-06-01T00:19:41;15.30;99.90
4811;DHT22;2419;51.276;6.472;2023-06-01T00:22:11;15.30;99.90
4811;DHT22;2419;51.276;6.472;2023-06-01T00:24:39;15.20;99.90
4811;DHT22;2419;51.276;6.472;2023-06-01T00:27:09;15.20;99.90
4811;DHT22;2419;51.276;6.472;2023-06-01T00:29:37;15.10;99.90
4811;DHT22;2419;51.276;6.472;2023-06-01T00:32:06;15.10;99.90
4811;DHT22;2419;51.276;6.472;2023-06-01T00:34:34;15.00;99.90
4811;DHT22;2419;51.276;6.472;2023-06-01T00:37:02;14.90;99.90
4811;DHT22;2419;51.276;6.472;2023-06-01T00:39:30;14.90;99.90
4811;DHT22;2419;51.276;6.472;2023-06-01T00:41:59;14.90;99.90
4811;DHT22;2419;51.276;6.472;2023-06-01T00:44:28;14.80;99.90
4811;DHT22;2419;51.276;6.472;2023-06-01T00:46:56;14.80;99.90
4811;DHT22;2419;51.276;6.472;2023-06-01T00:49:26;14.70;99.90
4811;DHT22;2419;51.276;6.472;2023-06-01T00:51:54;14.60;99.90
4811;DHT22;2419;51.276;6.472;2023-06-01T00:54:22;14.60;99.90
4811;DHT22;2419;51.276;6.472;2023-06-01T00:56:51;14.60;99.90
4811;DHT22;2419;51.276;6.472;2023-06-01T00:59:20;14.50;99.90
4811;DHT22;2419;51.276;6.472;2023-06-01T01:01:49;14.40;99.90
4811;DHT22;2419;51.276;6.472;2023-06-01T01:04:19;14.40;99.90
4811;DHT22;2419;51.276;6.472;2023-06-01T01:06:58;14.30;99.90
4811;DHT22;2419;51.276;6.472;2023-06-01T01:09:35;14.30;99.90
4811;DHT22;2419;51.276;6.472;2023-06-01T01:12:09;14.20;99.90
4811;DHT22;2419;51.276;6.472;2023-06-01T01:14:47;14.20;99.90
4811;DHT22;2419;51.276;6.472;2023-06-01T01:17:26;14.20;99.90
4811;DHT22;2419;51.276;6.472;2023-06-01T01:20:01;14.10;99.90
4811;DHT22;2419;51.276;6.472;2023-06-01T01:25:52;14.00;99.90
4811;DHT22;2419;51.276;6.472;2023-06-01T01:28:38;13.90;99.90
4811;DHT22;2419;51.276;6.472;2023-06-01T01:31:10;13.90;99.90
4811;DHT22;2419;51.276;6.472;2023-06-01T01:33:41;13.90;99.90
4811;DHT22;2419;51.276;6.472;2023-06-01T01:36:10;13.90;99.90
4811;DHT22;2419;51.276;6.472;2023-06-01T01:38:38;13.80;99.90
4811;DHT22;2419;51.276;6.472;2023-06-01T01:41:06;13.80;99.90
4811;DHT22;2419;51.276;6.472;2023-06-01T01:43:37;13.70;99.90
4811;DHT22;2419;51.276;6.472;2023-06-01T01:46:16;13.70;99.90
4811;DHT22;2419;51.276;6.472;2023-06-01T01:48:52;13.70;99.90
4811;DHT22;2419;51.276;6.472;2023-06-01T01:51:27;13.50;99.90
4811;DHT22;2419;51.276;6.472;2023-06-01T01:53:57;13.50;99.90
4811;DHT22;2419;51.276;6.472;2023-06-01T01:56:27;13.50;99.90
4811;DHT22;2419;51.276;6.472;2023-06-01T01:58:57;13.50;99.90
4811;DHT22;2419;51.276;6.472;2023-06-01T02:01:26;13.40;99.90
4811;DHT22;2419;51.276;6.472;2023-06-01T02:03:59;13.40;99.90
4811;DHT22;2419;51.276;6.472;2023-06-01T02:06:28;13.30;99.90
4811;DHT22;2419;51.276;6.472;2023-06-01T02:08:56;13.30;99.90
4811;DHT22;2419;51.276;6.472;2023-06-01T02:11:25;13.20;99.90
4811;DHT22;2419;51.276;6.472;2023-06-01T02:13:53;13.20;99.90
4811;DHT22;2419;51.276;6.472;2023-06-01T02:16:22;13.20;99.90
4811;DHT22;2419;51.276;6.472;2023-06-01T02:18:52;13.10;99.90
4811;DHT22;2419;51.276;6.472;2023-06-01T02:21:21;13.10;99.90
4811;DHT22;2419;51.276;6.472;2023-06-01T02:23:49;13.10;99.90
4811;DHT22;2419;51.276;6.472;2023-06-01T02:26:17;13.00;99.90
4811;DHT22;2419;51.276;6.472;2023-06-01T02:28:46;13.00;99.90
4811;DHT22;2419;51.276;6.472;2023-06-01T02:31:14;12.90;99.90
4811;DHT22;2419;51.276;6.472;2023-06-01T02:33:44;12.80;99.90
4811;DHT22;2419;51.276;6.472;2023-06-01T02:36:12;12.90;99.90
4811;DHT22;2419;51.276;6.472;2023-06-01T02:38:44;12.70;99.90
4811;DHT22;2419;51.276;6.472;2023-06-01T02:41:13;12.70;99.90
4811;DHT22;2419;51.276;6.472;2023-06-01T02:43:41;12.70;99.90
4811;DHT22;2419;51.276;6.472;2023-06-01T02:46:09;12.60;99.90
4811;DHT22;2419;51.276;6.472;2023-06-01T02:48:39;12.60;99.90
4811;DHT22;2419;51.276;6.472;2023-06-01T02:51:09;12.50;99.90
4811;DHT22;2419;51.276;6.472;2023-06-01T02:53:39;12.60;99.90
4811;DHT22;2419;51.276;6.472;2023-06-01T02:56:09;12.50;99.90
4811;DHT22;2419;51.276;6.472;2023-06-01T02:58:47;12.50;99.90
4811;DHT22;2419;51.276;6.472;2023-06-01T03:01:21;12.40;99.90
4811;DHT22;2419;51.276;6.472;2023-06-01T03:03:49;12.50;99.90
4811;DHT22;2419;51.276;6.472;2023-06-01T03:06:20;12.30;99.90
4811;DHT22;2419;51.276;6.472;2023-06-01T03:09:07;12.30;99.90
4811;DHT22;2419;51.276;6.472;2023-06-01T03:11:48;12.30;99.90
4811;DHT22;2419;51.276;6.472;2023-06-01T03:14:17;12.20;99.90
4811;DHT22;2419;51.276;6.472;2023-06-01T03:16:46;12.20;99.90
4811;DHT22;2419;51.276;6.472;2023-06-01T03:19:19;12.10;99.90
4811;DHT22;2419;51.276;6.472;2023-06-01T03:21:54;12.00;99.90
4811;DHT22;2419;51.276;6.472;2023-06-01T03:24:23;12.00;99.90
4811;DHT22;2419;51.276;6.472;2023-06-01T03:26:53;12.00;99.90
4811;DHT22;2419;51.276;6.472;2023-06-01T03:29:23;12.00;99.90
4811;DHT22;2419;51.276;6.472;2023-06-01T03:31:51;11.90;99.90
4811;DHT22;2419;51.276;6.472;2023-06-01T03:34:22;12.10;99.90
4811;DHT22;2419;51.276;6.472;2023-06-01T03:36:50;12.10;99.90
4811;DHT22;2419;51.276;6.472;2023-06-01T03:39:20;12.10;99.90
4811;DHT22;2419;51.276;6.472;2023-06-01T03:41:48;12.20;99.90
4811;DHT22;2419;51.276;6.472;2023-06-01T03:44:16;12.10;99.90
4811;DHT22;2419;51.276;6.472;2023-06-01T03:46:45;12.10;99.90
4811;DHT22;2419;51.276;6.472;2023-06-01T03:49:13;12.00;99.90
4811;DHT22;2419;51.276;6.472;2023-06-01T03:51:41;11.90;99.90
4811;DHT22;2419;51.276;6.472;2023-06-01T03:54:10;12.00;99.90
4811;DHT22;2419;51.276;6.472;2023-06-01T03:56:41;12.00;99.90
4811;DHT22;2419;51.276;6.472;2023-06-01T03:59:10;12.10;99.90
4811;DHT22;2419;51.276;6.472;2023-06-01T04:01:39;12.00;99.90
4811;DHT22;2419;51.276;6.472;2023-06-01T04:04:10;11.90;99.90
4811;DHT22;2419;51.276;6.472;2023-06-01T04:06:40;11.90;99.90
4811;DHT22;2419;51.276;6.472;2023-06-01T04:09:12;11.80;99.90
4811;DHT22;2419;51.276;6.472;2023-06-01T04:11:43;11.80;99.90
4811;DHT22;2419;51.276;6.472;2023-06-01T04:14:12;11.70;99.90
4811;DHT22;2419;51.276;6.472;2023-06-01T04:16:41;11.60;99.90
4811;DHT22;2419;51.276;6.472;2023-06-01T04:19:09;11.60;99.90
4811;DHT22;2419;51.276;6.472;2023-06-01T04:21:38;11.50;99.90
4811;DHT22;2419;51.276;6.472;2023-06-01T04:24:07;11.50;99.90
4811;DHT22;2419;51.276;6.472;2023-06-01T04:26:36;11.40;99.90
4811;DHT22;2419;51.276;6.472;2023-06-01T04:29:05;11.50;99.90
4811;DHT22;2419;51.276;6.472;2023-06-01T04:31:35;11.50;99.90
4811;DHT22;2419;51.276;6.472;2023-06-01T04:34:04;11.50;99.90
4811;DHT22;2419;51.276;6.472;2023-06-01T04:36:32;11.50;99.90
4811;DHT22;2419;51.276;6.472;2023-06-01T04:39:04;11.60;99.90
4811;DHT22;2419;51.276;6.472;2023-06-01T04:41:34;11.60;99.90
4811;DHT22;2419;51.276;6.472;2023-06-01T04:44:02;11.60;99.90
4811;DHT22;2419;51.276;6.472;2023-06-01T04:46:35;11.60;99.90
4811;DHT22;2419;51.276;6.472;2023-06-01T04:49:07;11.60;99.90
4811;DHT22;2419;51.276;6.472;2023-06-01T04:51:39;11.70;99.90
4811;DHT22;2419;51.276;6.472;2023-06-01T04:54:07;11.60;99.90
4811;DHT22;2419;51.276;6.472;2023-06-01T04:56:36;11.70;99.90
4811;DHT22;2419;51.276;6.472;2023-06-01T04:59:04;11.80;99.90
4811;DHT22;2419;51.276;6.472;2023-06-01T05:01:36;11.80;99.90
4811;DHT22;2419;51.276;6.472;2023-06-01T05:04:06;11.80;99.90
4811;DHT22;2419;51.276;6.472;2023-06-01T05:06:35;11.90;99.90
4811;DHT22;2419;51.276;6.472;2023-06-01T05:09:03;12.00;99.90
4811;DHT22;2419;51.276;6.472;2023-06-01T05:11:33;12.00;99.90
4811;DHT22;2419;51.276;6.472;2023-06-01T05:14:01;12.10;99.90
4811;DHT22;2419;51.276;6.472;2023-06-01T05:16:32;12.10;99.90
4811;DHT22;2419;51.276;6.472;2023-06-01T05:19:03;12.10;99.90
4811;DHT22;2419;51.276;6.472;2023-06-01T05:21:32;12.10;99.90
4811;DHT22;2419;51.276;6.472;2023-06-01T05:24:01;12.10;99.90
4811;DHT22;2419;51.276;6.472;2023-06-01T05:26:29;12.20;99.90
4811;DHT22;2419;51.276;6.472;2023-06-01T05:28:57;12.10;99.90
4811;DHT22;2419;51.276;6.472;2023-06-01T05:31:26;12.10;99.90
4811;DHT22;2419;51.276;6.472;2023-06-01T05:33:56;12.10;99.90
4811;DHT22;2419;51.276;6.472;2023-06-01T05:36:28;12.20;99.90
4811;DHT22;2419;51.276;6.472;2023-06-01T05:38:58;12.30;99.90
4811;DHT22;2419;51.276;6.472;2023-06-01T05:41:27;12.40;99.90
4811;DHT22;2419;51.276;6.472;2023-06-01T05:43:56;12.60;99.90
4811;DHT22;2419;51.276;6.472;2023-06-01T05:46:24;12.60;99.90
4811;DHT22;2419;51.276;6.472;2023-06-01T05:48:53;12.70;99.90
4811;DHT22;2419;51.276;6.472;2023-06-01T05:51:22;12.80;99.90
4811;DHT22;2419;51.276;6.472;2023-06-01T05:53:51;12.70;99.90
4811;DHT22;2419;51.276;6.472;2023-06-01T05:56:19;12.70;99.90
4811;DHT22;2419;51.276;6.472;2023-06-01T05:58:47;12.70;99.90
4811;DHT22;2419;51.276;6.472;2023-06-01T06:01:20;12.60;99.90
4811;DHT22;2419;51.276;6.472;2023-06-01T06:03:49;12.50;99.90
4811;DHT22;2419;51.276;6.472;2023-06-01T06:06:17;12.50;99.90
4811;DHT22;2419;51.276;6.472;2023-06-01T06:08:48;12.50;99.90
4811;DHT22;2419;51.276;6.472;2023-06-01T06:11:19;12.50;99.90
4811;DHT22;2419;51.276;6.472;2023-06-01T06:13:48;12.50;99.90
4811;DHT22;2419;51.276;6.472;2023-06-01T06:16:16;12.70;99.90
4811;DHT22;2419;51.276;6.472;2023-06-01T06:18:45;12.70;99.90
4811;DHT22;2419;51.276;6.472;2023-06-01T06:21:13;12.80;99.90
4811;DHT22;2419;51.276;6.472;2023-06-01T06:23:44;12.80;99.90
4811;DHT22;2419;51.276;6.472;2023-06-01T06:26:13;12.80;99.90
4811;DHT22;2419;51.276;6.472;2023-06-01T06:28:42;13.00;99.90
4811;DHT22;2419;51.276;6.472;2023-06-01T06:31:10;13.10;99.90
4811;DHT22;2419;51.276;6.472;2023-06-01T06:33:38;13.00;99.90
4811;DHT22;2419;51.276;6.472;2023-06-01T06:36:06;13.20;99.90
4811;DHT22;2419;51.276;6.472;2023-06-01T06:38:34;13.20;99.90
4811;DHT22;2419;51.276;6.472;2023-06-01T06:41:03;13.30;99.90
4811;DHT22;2419;51.276;6.472;2023-06-01T06:43:34;13.20;99.90
4811;DHT22;2419;51.276;6.472;2023-06-01T06:46:04;13.30;99.90
4811;DHT22;2419;51.276;6.472;2023-06-01T06:48:32;13.30;99.90
4811;DHT22;2419;51.276;6.472;2023-06-01T06:51:01;13.30;99.90
4811;DHT22;2419;51.276;6.472;2023-06-01T06:53:30;13.50;99.90
4811;DHT22;2419;51.276;6.472;2023-06-01T06:56:00;13.50;99.90
4811;DHT22;2419;51.276;6.472;2023-06-01T06:58:28;13.60;99.90
4811;DHT22;2419;51.276;6.472;2023-06-01T07:00:56;13.80;99.90
4811;DHT22;2419;51.276;6.472;2023-06-01T07:03:25;14.10;99.90
4811;DHT22;2419;51.276;6.472;2023-06-01T07:05:55;14.20;99.90
4811;DHT22;2419;51.276;6.472;2023-06-01T07:08:23;14.30;99.90
4811;DHT22;2419;51.276;6.472;2023-06-01T07:10:52;14.40;99.90
4811;DHT22;2419;51.276;6.472;2023-06-01T07:13:20;14.20;99.90
4811;DHT22;2419;51.276;6.472;2023-06-01T07:15:48;14.00;99.90
4811;DHT22;2419;51.276;6.472;2023-06-01T07:18:17;14.00;99.90
4811;DHT22;2419;51.276;6.472;2023-06-01T07:20:46;14.10;99.90
4811;DHT22;2419;51.276;6.472;2023-06-01T07:23:15;14.10;99.90
4811;DHT22;2419;51.276;6.472;2023-06-01T07:25:43;14.10;99.90
4811;DHT22;2419;51.276;6.472;2023-06-01T07:28:11;14.10;99.90
4811;DHT22;2419;51.276;6.472;2023-06-01T07:30:40;14.20;99.90
4811;DHT22;2419;51.276;6.472;2023-06-01T07:33:08;14.40;99.90
4811;DHT22;2419;51.276;6.472;2023-06-01T07:35:37;14.50;99.90
4811;DHT22;2419;51.276;6.472;2023-06-01T07:38:06;14.50;99.90
4811;DHT22;2419;51.276;6.472;2023-06-01T07:40:35;14.50;99.90
4811;DHT22;2419;51.276;6.472;2023-06-01T07:43:03;14.80;99.90
4811;DHT22;2419;51.276;6.472;2023-06-01T07:45:31;14.90;99.90
4811;DHT22;2419;51.276;6.472;2023-06-01T07:47:59;14.80;99.90
4811;DHT22;2419;51.276;6.472;2023-06-01T07:50:27;14.90;99.90
4811;DHT22;2419;51.276;6.472;2023-06-01T07:52:58;15.00;99.90
4811;DHT22;2419;51.276;6.472;2023-06-01T07:55:27;15.00;99.90
4811;DHT22;2419;51.276;6.472;2023-06-01T07:57:55;15.00;99.90
4811;DHT22;2419;51.276;6.472;2023-06-01T08:00:23;15.00;99.90
4811;DHT22;2419;51.276;6.472;2023-06-01T08:02:53;15.00;99.90
4811;DHT22;2419;51.276;6.472;2023-06-01T08:05:22;15.10;99.90
4811;DHT22;2419;51.276;6.472;2023-06-01T08:07:50;15.00;99.90
4811;DHT22;2419;51.276;6.472;2023-06-01T08:10:19;15.00;99.90
4811;DHT22;2419;51.276;6.472;2023-06-01T08:12:49;15.10;99.90
4811;DHT22;2419;51.276;6.472;2023-06-01T08:15:19;15.20;99.90
4811;DHT22;2419;51.276;6.472;2023-06-01T08:17:47;15.20;99.90
4811;DHT22;2419;51.276;6.472;2023-06-01T08:20:16;15.30;99.90
4811;DHT22;2419;51.276;6.472;2023-06-01T08:22:48;15.30;99.90
4811;DHT22;2419;51.276;6.472;2023-06-01T08:25:17;15.30;99.90
4811;DHT22;2419;51.276;6.472;2023-06-01T08:27:45;15.40;99.90
4811;DHT22;2419;51.276;6.472;2023-06-01T08:30:15;15.60;99.90
4811;DHT22;2419;51.276;6.472;2023-06-01T08:32:43;15.80;99.90
4811;DHT22;2419;51.276;6.472;2023-06-01T08:35:11;15.90;99.90
4811;DHT22;2419;51.276;6.472;2023-06-01T08:37:40;15.80;99.90
4811;DHT22;2419;51.276;6.472;2023-06-01T08:40:08;15.80;99.90
4811;DHT22;2419;51.276;6.472;2023-06-01T08:42:43;15.90;99.90
4811;DHT22;2419;51.276;6.472;2023-06-01T08:45:16;15.90;99.90
4811;DHT22;2419;51.276;6.472;2023-06-01T08:47:45;16.00;99.90
4811;DHT22;2419;51.276;6.472;2023-06-01T08:50:15;15.90;99.90
4811;DHT22;2419;51.276;6.472;2023-06-01T08:52:46;16.00;99.90
4811;DHT22;2419;51.276;6.472;2023-06-01T08:55:14;15.70;99.90
4811;DHT22;2419;51.276;6.472;2023-06-01T08:57:42;16.00;99.90
4811;DHT22;2419;51.276;6.472;2023-06-01T09:00:12;16.30;99.90
4811;DHT22;2419;51.276;6.472;2023-06-01T09:02:43;16.50;99.90
4811;DHT22;2419;51.276;6.472;2023-06-01T09:05:12;16.60;99.90
4811;DHT22;2419;51.276;6.472;2023-06-01T09:07:40;16.80;99.90
4811;DHT22;2419;51.276;6.472;2023-06-01T09:10:09;17.10;99.90
4811;DHT22;2419;51.276;6.472;2023-06-01T09:12:38;16.90;99.90
4811;DHT22;2419;51.276;6.472;2023-06-01T09:15:19;17.00;99.90
4811;DHT22;2419;51.276;6.472;2023-06-01T09:17:51;17.20;99.90
4811;DHT22;2419;51.276;6.472;2023-06-01T09:20:24;17.20;99.90
4811;DHT22;2419;51.276;6.472;2023-06-01T09:22:52;17.30;99.90
4811;DHT22;2419;51.276;6.472;2023-06-01T09:25:24;17.60;99.90
4811;DHT22;2419;51.276;6.472;2023-06-01T09:27:54;17.90;99.90
4811;DHT22;2419;51.276;6.472;2023-06-01T09:30:23;18.10;99.90
4811;DHT22;2419;51.276;6.472;2023-06-01T09:33:06;18.10;99.30
4811;DHT22;2419;51.276;6.472;2023-06-01T09:35:39;18.30;99.10
4811;DHT22;2419;51.276;6.472;2023-06-01T09:38:08;18.60;99.10
4811;DHT22;2419;51.276;6.472;2023-06-01T09:40:37;18.60;98.60
4811;DHT22;2419;51.276;6.472;2023-06-01T09:43:19;19.00;98.60
4811;DHT22;2419;51.276;6.472;2023-06-01T09:46:04;19.30;98.00
4811;DHT22;2419;51.276;6.472;2023-06-01T09:48:34;19.40;97.10
4811;DHT22;2419;51.276;6.472;2023-06-01T09:51:03;19.60;97.60
4811;DHT22;2419;51.276;6.472;2023-06-01T09:53:40;19.70;97.50
4811;DHT22;2419;51.276;6.472;2023-06-01T09:56:08;19.50;96.20
4811;DHT22;2419;51.276;6.472;2023-06-01T09:58:37;19.20;96.60
4811;DHT22;2419;51.276;6.472;2023-06-01T10:01:07;19.00;96.90
4811;DHT22;2419;51.276;6.472;2023-06-01T10:03:40;19.20;96.70
4811;DHT22;2419;51.276;6.472;2023-06-01T10:06:11;19.60;97.10
4811;DHT22;2419;51.276;6.472;2023-06-01T10:08:40;19.90;96.60
4811;DHT22;2419;51.276;6.472;2023-06-01T10:11:09;20.40;96.20
4811;DHT22;2419;51.276;6.472;2023-06-01T10:13:40;20.70;95.40
4811;DHT22;2419;51.276;6.472;2023-06-01T10:16:09;20.60;94.40
4811;DHT22;2419;51.276;6.472;2023-06-01T10:18:41;20.80;94.00
4811;DHT22;2419;51.276;6.472;2023-06-01T10:21:09;21.00;93.60
4811;DHT22;2419;51.276;6.472;2023-06-01T10:23:37;21.00;93.80
4811;DHT22;2419;51.276;6.472;2023-06-01T10:26:10;21.10;93.60
4811;DHT22;2419;51.276;6.472;2023-06-01T10:28:40;21.30;93.70
4811;DHT22;2419;51.276;6.472;2023-06-01T10:31:33;21.70;93.80
4811;DHT22;2419;51.276;6.472;2023-06-01T10:34:04;21.80;92.90
4811;DHT22;2419;51.276;6.472;2023-06-01T10:39:37;22.40;92.00
4811;DHT22;2419;51.276;6.472;2023-06-01T10:42:35;22.40;91.00
4811;DHT22;2419;51.276;6.472;2023-06-01T10:47:51;23.20;90.60
4811;DHT22;2419;51.276;6.472;2023-06-01T10:50:20;23.40;90.50
4811;DHT22;2419;51.276;6.472;2023-06-01T10:52:48;23.60;88.60
4811;DHT22;2419;51.276;6.472;2023-06-01T10:55:23;23.80;90.00
4811;DHT22;2419;51.276;6.472;2023-06-01T10:58:19;24.30;86.50
4811;DHT22;2419;51.276;6.472;2023-06-01T11:00:49;24.50;84.90
4811;DHT22;2419;51.276;6.472;2023-06-01T11:03:45;24.80;85.00
4811;DHT22;2419;51.276;6.472;2023-06-01T11:06:24;25.10;82.90
4811;DHT22;2419;51.276;6.472;2023-06-01T11:08:58;25.30;79.50
4811;DHT22;2419;51.276;6.472;2023-06-01T11:12:01;25.80;79.90
4811;DHT22;2419;51.276;6.472;2023-06-01T11:14:29;26.30;76.10
4811;DHT22;2419;51.276;6.472;2023-06-01T11:17:26;26.30;73.00
4811;DHT22;2419;51.276;6.472;2023-06-01T11:20:01;26.70;72.20
4811;DHT22;2419;51.276;6.472;2023-06-01T11:22:38;26.90;67.70
4811;DHT22;2419;51.276;6.472;2023-06-01T11:25:07;26.90;68.10
4811;DHT22;2419;51.276;6.472;2023-06-01T11:27:36;27.00;68.80
4811;DHT22;2419;51.276;6.472;2023-06-01T11:30:05;27.30;64.80
4811;DHT22;2419;51.276;6.472;2023-06-01T11:32:37;26.50;65.00
4811;DHT22;2419;51.276;6.472;2023-06-01T11:35:18;26.80;63.50
4811;DHT22;2419;51.276;6.472;2023-06-01T11:37:53;26.50;65.20
4811;DHT22;2419;51.276;6.472;2023-06-01T11:40:22;26.10;63.60
4811;DHT22;2419;51.276;6.472;2023-06-01T11:42:53;26.30;64.70
4811;DHT22;2419;51.276;6.472;2023-06-01T11:45:22;26.60;64.10
4811;DHT22;2419;51.276;6.472;2023-06-01T11:47:50;26.70;63.90
4811;DHT22;2419;51.276;6.472;2023-06-01T11:50:23;26.60;63.20
4811;DHT22;2419;51.276;6.472;2023-06-01T11:52:54;26.50;62.50
4811;DHT22;2419;51.276;6.472;2023-06-01T11:55:24;26.40;63.40
4811;DHT22;2419;51.276;6.472;2023-06-01T11:57:52;26.10;62.20
4811;DHT22;2419;51.276;6.472;2023-06-01T12:00:20;25.90;64.20
4811;DHT22;2419;51.276;6.472;2023-06-01T12:03:05;25.70;64.10
4811;DHT22;2419;51.276;6.472;2023-06-01T12:05:39;25.80;64.20
4811;DHT22;2419;51.276;6.472;2023-06-01T12:08:13;26.10;64.00
4811;DHT22;2419;51.276;6.472;2023-06-01T12:10:44;26.60;62.30
4811;DHT22;2419;51.276;6.472;2023-06-01T12:13:14;26.60;61.00
4811;DHT22;2419;51.276;6.472;2023-06-01T12:15:42;26.30;62.00
4811;DHT22;2419;51.276;6.472;2023-06-01T12:18:11;25.90;60.20
4811;DHT22;2419;51.276;6.472;2023-06-01T12:20:41;25.70;61.50
4811;DHT22;2419;51.276;6.472;2023-06-01T12:23:14;25.70;62.00
4811;DHT22;2419;51.276;6.472;2023-06-01T12:25:49;25.60;62.40
4811;DHT22;2419;51.276;6.472;2023-06-01T12:28:18;25.70;61.50
4811;DHT22;2419;51.276;6.472;2023-06-01T12:30:46;25.70;60.80
4811;DHT22;2419;51.276;6.472;2023-06-01T12:33:31;24.80;63.60
4811;DHT22;2419;51.276;6.472;2023-06-01T12:36:01;24.30;64.30
4811;DHT22;2419;51.276;6.472;2023-06-01T12:38:34;23.40;65.40
4811;DHT22;2419;51.276;6.472;2023-06-01T12:41:06;23.10;69.60
4811;DHT22;2419;51.276;6.472;2023-06-01T12:43:35;23.20;70.00
4811;DHT22;2419;51.276;6.472;2023-06-01T12:46:04;23.20;71.20
4811;DHT22;2419;51.276;6.472;2023-06-01T12:48:34;23.10;70.60
4811;DHT22;2419;51.276;6.472;2023-06-01T12:51:04;23.00;70.60
4811;DHT22;2419;51.276;6.472;2023-06-01T12:53:32;23.00;72.90
4811;DHT22;2419;51.276;6.472;2023-06-01T12:56:00;22.90;73.10
4811;DHT22;2419;51.276;6.472;2023-06-01T12:58:28;22.50;71.90
4811;DHT22;2419;51.276;6.472;2023-06-01T13:00:57;22.50;73.50
4811;DHT22;2419;51.276;6.472;2023-06-01T13:03:25;22.20;73.20
4811;DHT22;2419;51.276;6.472;2023-06-01T13:05:53;22.40;75.80
4811;DHT22;2419;51.276;6.472;2023-06-01T13:08:22;22.70;76.60
4811;DHT22;2419;51.276;6.472;2023-06-01T13:10:50;22.30;75.30
4811;DHT22;2419;51.276;6.472;2023-06-01T13:13:18;21.90;75.50
4811;DHT22;2419;51.276;6.472;2023-06-01T13:15:47;22.10;77.70
4811;DHT22;2419;51.276;6.472;2023-06-01T13:18:15;22.20;78.30
4811;DHT22;2419;51.276;6.472;2023-06-01T13:20:44;22.60;78.80
4811;DHT22;2419;51.276;6.472;2023-06-01T13:23:12;22.70;76.10
4811;DHT22;2419;51.276;6.472;2023-06-01T13:25:41;22.80;75.80
4811;DHT22;2419;51.276;6.472;2023-06-01T13:28:09;22.80;75.40
4811;DHT22;2419;51.276;6.472;2023-06-01T13:30:39;22.70;72.60
4811;DHT22;2419;51.276;6.472;2023-06-01T13:33:07;22.70;74.70
4811;DHT22;2419;51.276;6.472;2023-06-01T13:35:36;22.40;75.90
4811;DHT22;2419;51.276;6.472;2023-06-01T13:38:04;22.50;74.50
4811;DHT22;2419;51.276;6.472;2023-06-01T13:40:32;22.50;75.50
4811;DHT22;2419;51.276;6.472;2023-06-01T13:43:01;22.50;75.60
4811;DHT22;2419;51.276;6.472;2023-06-01T13:45:29;22.40;75.40
4811;DHT22;2419;51.276;6.472;2023-06-01T13:47:58;22.20;74.40
4811;DHT22;2419;51.276;6.472;2023-06-01T13:50:26;22.40;76.90
4811;DHT22;2419;51.276;6.472;2023-06-01T13:52:54;22.50;76.80
4811;DHT22;2419;51.276;6.472;2023-06-01T13:55:22;22.40;76.80
4811;DHT22;2419;51.276;6.472;2023-06-01T13:57:51;22.20;76.40
4811;DHT22;2419;51.276;6.472;2023-06-01T14:00:21;22.50;78.90
4811;DHT22;2419;51.276;6.472;2023-06-01T14:02:49;22.60;80.30
4811;DHT22;2419;51.276;6.472;2023-06-01T14:05:17;22.20;77.50
4811;DHT22;2419;51.276;6.472;2023-06-01T14:07:57;22.20;79.60
4811;DHT22;2419;51.276;6.472;2023-06-01T14:10:25;22.40;79.90
4811;DHT22;2419;51.276;6.472;2023-06-01T14:12:54;22.40;80.60
4811;DHT22;2419;51.276;6.472;2023-06-01T14:15:24;22.40;81.10
4811;DHT22;2419;51.276;6.472;2023-06-01T14:17:52;22.40;79.20
4811;DHT22;2419;51.276;6.472;2023-06-01T14:20:20;22.20;79.60
4811;DHT22;2419;51.276;6.472;2023-06-01T14:22:48;22.20;80.70
4811;DHT22;2419;51.276;6.472;2023-06-01T14:25:17;21.90;80.60
4811;DHT22;2419;51.276;6.472;2023-06-01T14:27:45;21.80;81.60
4811;DHT22;2419;51.276;6.472;2023-06-01T14:30:13;22.00;81.50
4811;DHT22;2419;51.276;6.472;2023-06-01T14:32:43;22.20;84.60
4811;DHT22;2419;51.276;6.472;2023-06-01T14:35:12;22.50;82.80
4811;DHT22;2419;51.276;6.472;2023-06-01T14:37:42;22.50;82.40
4811;DHT22;2419;51.276;6.472;2023-06-01T14:40:16;22.10;80.20
4811;DHT22;2419;51.276;6.472;2023-06-01T14:42:45;21.90;83.10
4811;DHT22;2419;51.276;6.472;2023-06-01T14:45:13;22.10;83.90
4811;DHT22;2419;51.276;6.472;2023-06-01T14:47:43;22.00;82.10
4811;DHT22;2419;51.276;6.472;2023-06-01T14:50:11;21.90;82.10
4811;DHT22;2419;51.276;6.472;2023-06-01T14:52:39;21.70;83.10
4811;DHT22;2419;51.276;6.472;2023-06-01T14:55:08;22.00;85.50
4811;DHT22;2419;51.276;6.472;2023-06-01T14:57:39;22.10;83.10
4811;DHT22;2419;51.276;6.472;2023-06-01T15:00:08;22.40;85.10
4811;DHT22;2419;51.276;6.472;2023-06-01T15:02:37;22.20;84.70
4811;DHT22;2419;51.276;6.472;2023-06-01T15:05:07;21.70;82.90
4811;DHT22;2419;51.276;6.472;2023-06-01T15:07:35;21.70;83.80
4811;DHT22;2419;51.276;6.472;2023-06-01T15:10:04;21.60;84.20
4811;DHT22;2419;51.276;6.472;2023-06-01T15:12:33;21.70;86.70
4811;DHT22;2419;51.276;6.472;2023-06-01T15:15:01;21.90;85.90
4811;DHT22;2419;51.276;6.472;2023-06-01T15:17:30;22.00;86.10
4811;DHT22;2419;51.276;6.472;2023-06-01T15:19:59;22.00;85.60
4811;DHT22;2419;51.276;6.472;2023-06-01T15:22:28;22.10;84.70
4811;DHT22;2419;51.276;6.472;2023-06-01T15:24:56;21.80;83.60
4811;DHT22;2419;51.276;6.472;2023-06-01T15:27:24;21.80;85.00
4811;DHT22;2419;51.276;6.472;2023-06-01T15:29:52;22.00;86.10
4811;DHT22;2419;51.276;6.472;2023-06-01T15:32:21;21.90;85.10
4811;DHT22;2419;51.276;6.472;2023-06-01T15:34:49;21.90;87.00
4811;DHT22;2419;51.276;6.472;2023-06-01T15:37:17;21.80;85.80
4811;DHT22;2419;51.276;6.472;2023-06-01T15:39:47;21.70;85.50
4811;DHT22;2419;51.276;6.472;2023-06-01T15:42:16;21.80;85.60
4811;DHT22;2419;51.276;6.472;2023-06-01T15:44:44;21.80;85.50
4811;DHT22;2419;51.276;6.472;2023-06-01T15:47:12;21.90;85.80
4811;DHT22;2419;51.276;6.472;2023-06-01T15:49:40;22.00;84.00
4811;DHT22;2419;51.276;6.472;2023-06-01T15:52:09;22.00;82.50
4811;DHT22;2419;51.276;6.472;2023-06-01T15:54:37;21.90;82.40
4811;DHT22;2419;51.276;6.472;2023-06-01T15:57:07;21.80;81.60
4811;DHT22;2419;51.276;6.472;2023-06-01T15:59:35;22.00;82.20
4811;DHT22;2419;51.276;6.472;2023-06-01T16:02:03;22.00;81.70
4811;DHT22;2419;51.276;6.472;2023-06-01T16:04:32;22.00;79.60
4811;DHT22;2419;51.276;6.472;2023-06-01T16:07:00;21.80;79.00
4811;DHT22;2419;51.276;6.472;2023-06-01T16:09:28;21.90;80.20
4811;DHT22;2419;51.276;6.472;2023-06-01T16:11:56;21.90;80.10
4811;DHT22;2419;51.276;6.472;2023-06-01T16:14:25;21.70;78.70
4811;DHT22;2419;51.276;6.472;2023-06-01T16:16:53;21.80;80.00
4811;DHT22;2419;51.276;6.472;2023-06-01T16:19:22;21.80;78.50
4811;DHT22;2419;51.276;6.472;2023-06-01T16:21:50;22.00;78.00
4811;DHT22;2419;51.276;6.472;2023-06-01T16:24:18;21.90;78.90
4811;DHT22;2419;51.276;6.472;2023-06-01T16:26:46;21.80;77.70
4811;DHT22;2419;51.276;6.472;2023-06-01T16:29:14;21.60;79.70
4811;DHT22;2419;51.276;6.472;2023-06-01T16:31:43;21.60;79.60